Time;durP1;ratioP1;P1;durP2;ratioP2;P2;SDS_P1;SDS_P2;PMS_P1;PMS_P2;Temp;Humidity;BMP_temperature;BMP_pressure;BME280_temperature;BME280_humidity;BME280_pressure;Samples;Min_cycle;Max_cycle;Signal;HPM_P1;HPM_P2
2021/11/08 00:01:45;;;;;;;27.90;7.35;;;;;;;6.16;94.57;101774.56;4958517;28;20040;-76
2021/11/08 00:04:11;;;;;;;29.02;7.03;;;;;;;6.11;94.18;101769.72;5012036;28;20591;-76
2021/11/08 00:06:37;;;;;;;32.15;8.70;;;;;;;6.09;94.63;101765.63;5011465;28;20032;-76
2021/11/08 00:09:04;;;;;;;38.10;8.55;;;;;;;6.11;94.49;101766.34;5001028;28;20477;-76
2021/11/08 00:11:31;;;;;;;32.78;7.53;;;;;;;6.08;94.66;101769.09;4928059;28;20039;-76
2021/11/08 00:13:57;;;;;;;33.63;8.60;;;;;;;6.08;94.73;101772.50;4942928;28;20557;-75
2021/11/08 00:22:05;;;;;;;35.30;8.30;;;;;;;6.06;94.82;101761.47;5012903;28;20443;-76
2021/11/08 00:24:32;;;;;;;28.23;7.70;;;;;;;5.98;94.93;101767.13;5004916;28;20028;-76
2021/11/08 00:26:59;;;;;;;30.08;7.32;;;;;;;5.95;94.72;101763.91;5022710;28;20104;-76
2021/11/08 00:29:25;;;;;;;34.88;7.50;;;;;;;5.95;95.16;101769.94;5002869;28;20090;-75
2021/11/08 00:31:51;;;;;;;31.00;6.95;;;;;;;5.91;95.16;101765.06;5008947;28;20044;-76
2021/11/08 00:34:16;;;;;;;32.97;7.22;;;;;;;5.88;95.45;101766.09;4927087;28;20036;-76
2021/11/08 00:36:42;;;;;;;36.35;7.78;;;;;;;5.91;94.72;101768.44;5001499;28;20329;-76
2021/11/08 00:39:09;;;;;;;31.00;6.63;;;;;;;5.84;94.98;101769.78;5003500;28;20226;-76
2021/11/08 00:41:35;;;;;;;45.42;9.88;;;;;;;5.88;94.68;101771.25;4971974;28;20039;-76
2021/11/08 00:44:02;;;;;;;30.85;7.68;;;;;;;5.83;95.17;101776.66;5009241;28;20066;-77
2021/11/08 00:46:27;;;;;;;33.65;8.52;;;;;;;5.85;94.91;101769.66;5008148;28;20039;-76
2021/11/08 00:48:53;;;;;;;23.17;6.70;;;;;;;5.81;94.91;101780.28;5016988;28;20431;-75
2021/11/08 00:51:18;;;;;;;35.35;8.80;;;;;;;5.82;94.50;101774.19;4944984;28;20525;-77
2021/11/08 00:53:45;;;;;;;38.58;7.28;;;;;;;5.86;93.98;101780.81;5011032;28;20043;-77
2021/11/08 00:56:13;;;;;;;28.83;6.80;;;;;;;5.77;94.59;101781.41;5006783;28;20042;-76
2021/11/08 00:58:41;;;;;;;42.38;8.07;;;;;;;5.77;95.25;101784.00;4933054;28;20036;-76
2021/11/08 01:01:08;;;;;;;31.33;7.80;;;;;;;5.77;95.28;101789.13;4949352;28;20499;-76
2021/11/08 01:03:43;;;;;;;28.90;7.85;;;;;;;5.75;95.29;101783.28;5003818;28;20035;-76
2021/11/08 01:06:09;;;;;;;34.55;8.02;;;;;;;5.83;95.12;101783.56;5004250;28;20031;-76
2021/11/08 01:08:35;;;;;;;38.40;8.38;;;;;;;5.80;95.40;101778.63;5022899;28;20396;-76
2021/11/08 01:11:02;;;;;;;26.63;6.60;;;;;;;5.76;95.58;101783.16;4993163;28;20111;-76
2021/11/08 01:13:28;;;;;;;37.60;8.15;;;;;;;5.76;95.41;101790.03;4933304;28;20039;-76
2021/11/08 01:15:55;;;;;;;41.55;8.43;;;;;;;5.88;95.67;101789.25;4991924;28;20082;-75
2021/11/08 01:18:22;;;;;;;33.85;7.97;;;;;;;5.78;94.96;101786.47;4981487;28;20487;-76
2021/11/08 01:20:48;;;;;;;29.83;7.18;;;;;;;5.81;95.15;101793.16;4990935;28;20058;-76
2021/11/08 01:23:16;;;;;;;42.13;9.52;;;;;;;5.79;95.12;101798.41;4954559;28;20047;-76
2021/11/08 01:25:42;;;;;;;46.30;8.05;;;;;;;5.88;95.08;101796.97;5011137;28;20315;-75
2021/11/08 01:28:10;;;;;;;35.00;7.95;;;;;;;5.80;95.12;101789.75;5006996;28;20554;-76
2021/11/08 01:30:35;;;;;;;28.05;7.05;;;;;;;5.77;95.66;101796.84;5028619;28;20523;-76
2021/11/08 01:33:08;;;;;;;36.20;7.28;;;;;;;5.77;95.79;101797.69;5005741;28;20340;-76
2021/11/08 01:35:45;;;;;;;35.00;7.43;;;;;;;5.76;95.88;101803.72;5026876;28;20036;-76
2021/11/08 01:38:24;;;;;;;38.30;7.15;;;;;;;5.80;95.77;101799.22;4928370;28;20063;-77
2021/11/08 01:40:50;;;;;;;37.33;7.68;;;;;;;5.88;95.97;101801.28;4928813;28;20039;-76
2021/11/08 01:43:16;;;;;;;31.63;7.05;;;;;;;5.91;95.75;101799.34;4993706;28;20574;-75
2021/11/08 01:45:41;;;;;;;36.03;7.15;;;;;;;5.94;95.91;101801.72;4992296;28;20054;-76
2021/11/08 01:48:09;;;;;;;31.92;5.93;;;;;;;5.98;95.55;101802.38;5026814;28;20031;-76
2021/11/08 01:50:35;;;;;;;39.10;7.63;;;;;;;5.99;95.70;101804.84;5007075;28;20036;-76
2021/11/08 01:53:01;;;;;;;38.90;6.93;;;;;;;6.01;95.71;101800.41;4995780;28;20054;-76
2021/11/08 01:55:27;;;;;;;31.98;8.07;;;;;;;6.08;95.72;101800.81;5007155;28;20032;-76
2021/11/08 01:57:54;;;;;;;34.40;6.25;;;;;;;6.03;96.11;101801.16;4989251;28;20176;-76
2021/11/08 02:00:20;;;;;;;35.75;6.93;;;;;;;6.03;95.94;101798.56;4962488;28;20025;-76
2021/11/08 02:02:47;;;;;;;29.63;6.22;;;;;;;5.98;96.07;101798.03;4992752;28;20036;-76
2021/11/08 02:05:13;;;;;;;28.60;6.57;;;;;;;6.00;96.34;101800.53;5016214;28;20415;-76
2021/11/08 02:07:39;;;;;;;28.55;6.78;;;;;;;6.01;96.67;101792.69;4989036;28;20059;-77
2021/11/08 02:10:07;;;;;;;37.15;6.22;;;;;;;6.09;96.08;101804.25;4994369;28;20082;-76
2021/11/08 02:12:32;;;;;;;39.05;6.82;;;;;;;6.07;96.00;101800.94;4925207;28;20066;-76
2021/11/08 02:15:00;;;;;;;34.35;6.70;;;;;;;6.09;95.44;101801.66;4999577;28;20053;-76
2021/11/08 02:17:31;;;;;;;31.17;6.40;;;;;;;6.04;95.29;101801.97;4993009;28;20044;-76
2021/11/08 02:20:10;;;;;;;33.10;5.90;;;;;;;6.07;95.47;101804.34;4925857;28;20135;-76
2021/11/08 02:22:36;;;;;;;27.45;5.82;;;;;;;6.06;95.85;101804.44;5009766;28;20684;-76
2021/11/08 02:25:02;;;;;;;30.00;5.90;;;;;;;6.06;95.99;101805.25;4992790;28;20047;-76
2021/11/08 02:27:28;;;;;;;34.58;6.47;;;;;;;6.10;96.24;101803.31;4931356;28;20036;-76
2021/11/08 02:29:54;;;;;;;36.75;7.13;;;;;;;6.07;96.08;101808.69;5009235;28;20442;-76
2021/11/08 02:32:19;;;;;;;41.30;7.80;;;;;;;6.14;96.06;101808.16;5004698;28;20040;-76
2021/11/08 02:34:45;;;;;;;37.90;7.72;;;;;;;6.13;95.76;101806.50;4939075;28;20035;-76
2021/11/08 02:37:11;;;;;;;38.75;8.65;;;;;;;6.18;95.79;101816.50;4996138;28;20038;-77
2021/11/08 02:39:39;;;;;;;43.53;7.20;;;;;;;6.19;95.87;101818.97;5011056;28;20081;-75
2021/11/08 02:42:05;;;;;;;45.50;9.27;;;;;;;6.17;95.94;101814.84;4943750;28;20166;-75
2021/11/08 02:44:31;;;;;;;34.85;7.35;;;;;;;6.17;96.26;101815.66;5008948;28;20039;-75
2021/11/08 02:46:57;;;;;;;26.67;6.72;;;;;;;6.19;95.84;101818.97;5019632;28;20031;-76
2021/11/08 02:49:32;;;;;;;41.42;8.00;;;;;;;6.30;95.74;101820.81;4974718;28;20038;-76
2021/11/08 02:52:04;;;;;;;32.35;6.32;;;;;;;6.28;95.37;101825.25;4923901;28;20487;-76
2021/11/08 02:54:40;;;;;;;31.73;8.77;;;;;;;6.35;95.26;101821.34;4925435;28;20039;-76
2021/11/08 02:57:06;;;;;;;31.55;6.65;;;;;;;6.27;95.12;101825.34;4928992;28;20028;-76
2021/11/08 02:59:35;;;;;;;32.03;6.38;;;;;;;6.22;95.65;101818.75;4935753;28;20135;-76
2021/11/08 03:02:01;;;;;;;34.47;6.72;;;;;;;6.23;95.76;101819.59;4922329;28;20088;-75
2021/11/08 03:04:30;;;;;;;36.05;7.30;;;;;;;6.30;95.62;101822.59;5008738;28;20036;-76
2021/11/08 03:06:56;;;;;;;33.00;6.25;;;;;;;6.20;95.54;101823.19;4923490;28;20469;-75
2021/11/08 03:09:29;;;;;;;29.63;6.47;;;;;;;6.27;95.62;101826.16;5006414;28;20044;-75
2021/11/08 03:11:55;;;;;;;40.28;7.60;;;;;;;6.26;95.33;101818.56;4998850;28;20531;-76
2021/11/08 03:14:24;;;;;;;29.13;6.57;;;;;;;6.28;94.90;101812.38;4993116;28;20081;-76
2021/11/08 03:16:59;;;;;;;31.98;6.28;;;;;;;6.23;94.86;101814.44;5001218;28;20489;-76
2021/11/08 03:19:31;;;;;;;37.60;5.65;;;;;;;6.30;94.65;101810.53;4983690;28;20043;-76
2021/11/08 03:21:58;;;;;;;37.70;6.82;;;;;;;6.21;94.23;101805.97;4935199;28;20068;-76
2021/11/08 03:27:16;;;;;;;;;;;;;;;6.16;94.39;101818.34;5004256;28;20272;-75
2021/11/08 03:29:42;;;;;;;32.53;6.05;;;;;;;6.09;94.66;101817.13;5021489;28;19965;-77
2021/11/08 03:32:10;;;;;;;41.35;7.45;;;;;;;6.13;94.62;101819.38;5022850;28;20353;-78
2021/11/08 03:34:38;;;;;;;29.35;5.38;;;;;;;6.13;94.83;101818.56;4993415;28;20036;-76
2021/11/08 03:37:04;;;;;;;39.33;7.57;;;;;;;6.19;94.90;101823.28;5012858;28;20083;-76
2021/11/08 03:39:30;;;;;;;32.05;6.47;;;;;;;6.18;95.01;101825.06;4926871;28;20028;-75
2021/11/08 03:41:55;;;;;;;29.45;6.78;;;;;;;6.22;95.01;101829.06;5006468;28;20039;-76
2021/11/08 03:44:21;;;;;;;42.40;8.07;;;;;;;6.21;94.71;101829.16;4925649;28;20547;-76
2021/11/08 03:46:47;;;;;;;34.20;5.55;;;;;;;6.14;95.01;101818.47;5007704;28;20109;-75
2021/11/08 03:49:12;;;;;;;31.17;6.20;;;;;;;6.23;95.08;101824.72;5004889;28;20560;-76
2021/11/08 03:51:38;;;;;;;29.90;5.57;;;;;;;6.16;95.42;101826.06;4927105;28;20043;-76
2021/11/08 03:54:06;;;;;;;29.85;5.90;;;;;;;6.15;94.99;101832.16;5001454;28;20066;-76
2021/11/08 03:56:32;;;;;;;34.10;6.32;;;;;;;6.19;95.30;101829.25;5008720;28;20039;-76
2021/11/08 03:58:58;;;;;;;36.72;7.53;;;;;;;6.24;94.97;101828.97;5008443;28;20042;-77
2021/11/08 04:01:24;;;;;;;42.78;6.78;;;;;;;6.31;95.06;101832.78;5007192;28;20038;-76
2021/11/08 04:03:49;;;;;;;42.53;7.32;;;;;;;6.28;95.17;101835.56;4963840;28;20036;-76
2021/11/08 04:06:16;;;;;;;34.72;7.45;;;;;;;6.21;95.18;101837.72;4991772;28;20035;-77
2021/11/08 04:08:41;;;;;;;34.53;7.55;;;;;;;6.26;95.02;101837.41;4987842;28;20043;-76
2021/11/08 04:11:07;;;;;;;46.17;6.30;;;;;;;6.42;94.25;101835.47;4992153;28;20216;-75
2021/11/08 04:13:37;;;;;;;49.58;6.97;;;;;;;6.37;94.20;101834.94;5008604;28;20142;-75
2021/11/08 04:16:06;;;;;;;42.22;6.18;;;;;;;6.30;94.16;101845.78;4936710;28;20036;-76
2021/11/08 04:18:32;;;;;;;43.30;11.68;;;;;;;6.23;94.64;101851.34;4996345;28;20390;-76
2021/11/08 04:20:59;;;;;;;52.30;16.67;;;;;;;6.26;94.62;101854.63;4922947;28;20027;-76
2021/11/08 04:23:26;;;;;;;47.65;12.85;;;;;;;6.27;94.99;101851.13;5018714;28;20036;-76
2021/11/08 04:25:53;;;;;;;41.60;9.40;;;;;;;6.32;94.85;101852.47;5020522;28;20040;-76
2021/11/08 04:28:19;;;;;;;42.85;9.68;;;;;;;6.27;94.68;101853.69;5035154;28;20513;-75
2021/11/08 04:30:44;;;;;;;35.40;7.63;;;;;;;6.26;94.63;101864.94;4996539;28;20524;-76
2021/11/08 04:33:21;;;;;;;43.28;10.10;;;;;;;6.26;95.25;101859.78;4985460;28;20049;-75
2021/11/08 04:41:05;;;;;;;46.88;9.93;;;;;;;6.29;95.05;101860.41;5012169;28;20402;-76
2021/11/08 05:32:10;;;;;;;39.15;10.38;;;;;;;6.24;95.09;101880.50;5028100;28;20062;-75
2021/11/08 05:34:36;;;;;;;49.03;17.70;;;;;;;6.24;95.05;101883.06;5004302;28;20033;-76
2021/11/08 05:37:02;;;;;;;53.00;15.10;;;;;;;6.19;95.21;101882.53;5011169;28;20119;-76
2021/11/08 05:39:27;;;;;;;42.92;13.85;;;;;;;6.16;95.70;101881.00;4981657;28;20032;-75
2021/11/08 05:41:54;;;;;;;53.80;9.73;;;;;;;6.22;95.42;101887.50;5007784;28;20038;-77
2021/11/08 05:44:20;;;;;;;39.20;8.95;;;;;;;6.22;95.36;101890.06;4947859;28;20128;-76
2021/11/08 05:46:45;;;;;;;41.28;9.63;;;;;;;6.19;95.43;101892.84;5007094;28;20035;-75
2021/11/08 05:49:11;;;;;;;52.65;13.13;;;;;;;6.20;95.55;101895.31;5021559;28;20030;-77
2021/11/08 05:51:36;;;;;;;50.40;9.88;;;;;;;6.30;94.96;101898.09;4990054;28;20467;-76
2021/11/08 05:54:02;;;;;;;51.92;14.00;;;;;;;6.33;94.29;101891.91;4984796;28;20408;-77
2021/11/08 05:56:32;;;;;;;44.03;12.80;;;;;;;6.27;94.92;101887.19;4925501;28;20039;-76
2021/11/08 06:47:17;;;;;;;33.25;8.23;;;;;;;6.20;95.12;101902.22;4942162;28;20035;-76
2021/11/08 06:50:45;;;;;;;32.00;8.60;;;;;;;6.29;95.28;101939.41;5008989;28;20405;-76
2021/11/08 06:53:19;;;;;;;33.78;7.82;;;;;;;6.38;95.09;101943.97;5015974;28;20083;-75
2021/11/08 06:55:49;;;;;;;42.03;9.60;;;;;;;6.42;94.30;101946.25;4937089;28;20348;-76
2021/11/08 06:58:19;;;;;;;37.50;9.13;;;;;;;6.35;94.96;101947.59;5009331;28;20032;-76
2021/11/08 07:00:46;;;;;;;39.30;8.88;;;;;;;6.39;94.75;101938.72;5007012;28;20126;-76
2021/11/08 07:03:15;;;;;;;38.80;10.00;;;;;;;6.41;94.31;101938.63;4926847;28;20074;-76
2021/11/08 07:05:40;;;;;;;45.88;10.73;;;;;;;6.38;94.66;101942.22;5008646;28;20115;-76
2021/11/08 07:08:07;;;;;;;29.73;7.85;;;;;;;6.34;94.47;101945.91;4999430;28;20516;-76
2021/11/08 07:10:33;;;;;;;46.25;10.40;;;;;;;6.30;94.85;101946.25;4931870;28;20024;-76
2021/11/08 07:13:00;;;;;;;39.78;12.00;;;;;;;6.29;95.16;101942.84;4923298;28;20404;-76
2021/11/08 07:15:26;;;;;;;45.55;11.13;;;;;;;6.36;94.93;101948.41;4924896;28;20036;-76
2021/11/08 07:17:52;;;;;;;43.85;11.13;;;;;;;6.43;94.34;101947.91;4975899;28;20467;-77
2021/11/08 07:20:19;;;;;;;37.65;11.85;;;;;;;6.42;94.51;101954.00;4921570;28;20107;-75
2021/11/08 07:22:45;;;;;;;34.20;10.95;;;;;;;6.46;94.43;101952.03;4925424;28;20043;-76
2021/11/08 07:25:10;;;;;;;31.00;9.20;;;;;;;6.46;94.57;101953.78;4940950;28;20542;-76
2021/11/08 07:27:36;;;;;;;28.92;8.68;;;;;;;6.44;94.72;101956.44;5002231;28;20025;-77
2021/11/08 07:30:03;;;;;;;45.17;9.00;;;;;;;6.46;94.75;101962.34;5008752;28;20042;-77
2021/11/08 07:32:29;;;;;;;32.47;6.72;;;;;;;6.47;94.71;101969.13;5022686;28;20044;-76
2021/11/08 07:34:56;;;;;;;36.42;7.32;;;;;;;6.68;93.61;101968.66;4985482;28;20117;-76
2021/11/08 07:37:22;;;;;;;42.67;9.68;;;;;;;6.58;93.59;101964.09;5008142;28;20531;-76
2021/11/08 07:39:48;;;;;;;41.15;7.38;;;;;;;6.60;94.01;101972.56;5020553;28;20084;-76
2021/11/08 07:42:14;;;;;;;33.30;6.93;;;;;;;6.57;93.92;101984.81;5022971;28;20264;-77
2021/11/08 07:44:39;;;;;;;29.63;6.97;;;;;;;6.54;94.11;101980.69;4945382;28;20070;-76
2021/11/08 07:47:05;;;;;;;30.38;6.60;;;;;;;6.56;94.32;101984.00;5008467;28;20509;-76
2021/11/08 07:49:31;;;;;;;39.40;8.45;;;;;;;6.69;93.91;101991.75;5008886;28;20040;-77
2021/11/08 07:51:56;;;;;;;32.47;7.38;;;;;;;6.77;93.29;101994.66;4986808;28;20081;-76
2021/11/08 07:54:23;;;;;;;37.35;7.55;;;;;;;6.86;92.76;102006.09;5003741;28;20485;-77
2021/11/08 07:56:49;;;;;;;36.85;7.90;;;;;;;6.79;92.79;102005.66;4991201;28;20050;-77
2021/11/08 07:59:16;;;;;;;37.08;6.82;;;;;;;6.83;93.00;102011.47;4982284;28;20028;-77
2021/11/08 08:01:42;;;;;;;39.42;8.23;;;;;;;6.96;92.18;102011.47;5019809;28;20224;-77
2021/11/08 08:04:07;;;;;;;42.22;7.53;;;;;;;7.04;91.64;102013.53;5002359;28;20036;-76
2021/11/08 08:06:33;;;;;;;43.42;7.38;;;;;;;7.02;91.78;102006.72;5008677;28;20050;-76
2021/11/08 08:08:58;;;;;;;30.95;7.10;;;;;;;7.06;91.61;101999.59;5007778;28;20419;-76
2021/11/08 08:11:24;;;;;;;35.75;7.75;;;;;;;6.94;91.90;102010.75;5010073;28;20035;-76
2021/11/08 08:13:50;;;;;;;41.72;9.13;;;;;;;6.94;92.33;102016.72;5025295;28;20102;-76
2021/11/08 08:16:18;;;;;;;35.88;7.97;;;;;;;6.96;92.03;102014.88;4995409;28;20032;-77
2021/11/08 08:18:46;;;;;;;36.53;8.02;;;;;;;6.99;92.39;102019.00;4990256;28;20051;-75
2021/11/08 08:21:13;;;;;;;34.72;7.63;;;;;;;7.08;91.00;102026.09;4928258;28;20480;-77
2021/11/08 08:23:41;;;;;;;39.90;7.68;;;;;;;7.11;91.27;102031.06;5024721;28;20386;-77
2021/11/08 08:26:07;;;;;;;43.90;7.40;;;;;;;7.09;91.57;102027.78;4928209;28;20036;-77
2021/11/08 08:28:33;;;;;;;51.28;8.50;;;;;;;7.18;91.54;102034.06;4953424;28;20216;-76
2021/11/08 08:30:59;;;;;;;34.30;6.95;;;;;;;7.33;90.82;102027.88;4986508;28;20575;-76
2021/11/08 08:33:26;;;;;;;33.80;7.75;;;;;;;7.48;89.89;102033.75;5028065;28;20032;-76
2021/11/08 08:35:52;;;;;;;38.63;8.18;;;;;;;7.45;89.83;102028.78;4923817;28;20035;-76
2021/11/08 08:38:18;;;;;;;36.30;8.60;;;;;;;7.45;90.20;102025.38;4967921;28;20387;-75
2021/11/08 08:40:46;;;;;;;45.55;9.30;;;;;;;7.52;89.92;102035.16;5012002;28;20073;-76
2021/11/08 08:43:13;;;;;;;35.55;7.85;;;;;;;7.64;89.90;102036.06;4992345;28;20482;-77
2021/11/08 08:45:39;;;;;;;40.08;7.10;;;;;;;7.65;89.41;102036.88;4923496;28;20027;-76
2021/11/08 08:48:06;;;;;;;34.22;8.23;;;;;;;7.74;88.65;102034.50;5011386;28;20058;-79
2021/11/08 08:50:32;;;;;;;32.10;8.27;;;;;;;7.82;88.65;102035.72;5011925;28;20063;-76
2021/11/08 08:52:58;;;;;;;36.88;7.60;;;;;;;7.93;87.86;102039.22;4995983;28;20125;-78
2021/11/08 08:55:23;;;;;;;37.53;7.13;;;;;;;7.95;87.47;102044.28;5008282;28;20086;-76
2021/11/08 08:57:50;;;;;;;43.17;7.18;;;;;;;7.89;87.40;102050.69;5010538;28;20036;-75
2021/11/08 09:00:20;;;;;;;34.70;7.20;;;;;;;7.89;87.33;102049.84;5019005;28;20141;-76
2021/11/08 09:02:50;;;;;;;34.53;7.10;;;;;;;8.11;87.36;102052.56;4934697;28;20039;-77
2021/11/08 09:05:16;;;;;;;35.53;6.57;;;;;;;8.12;86.82;102053.41;5011348;28;20063;-77
2021/11/08 09:07:42;;;;;;;38.47;8.35;;;;;;;8.02;87.35;102050.63;4928044;28;20074;-76
2021/11/08 09:10:07;;;;;;;35.63;6.60;;;;;;;8.01;87.90;102064.50;5008066;28;20036;-76
2021/11/08 09:12:33;;;;;;;42.70;8.30;;;;;;;8.08;88.23;102070.03;4926108;28;20050;-76
2021/11/08 09:14:59;;;;;;;45.15;8.32;;;;;;;8.07;86.76;102063.25;4995639;28;20171;-77
2021/11/08 09:17:24;;;;;;;40.00;9.13;;;;;;;8.00;87.15;102080.91;4982308;28;20074;-77
2021/11/08 09:19:49;;;;;;;30.23;7.18;;;;;;;8.05;86.78;102068.50;5001300;28;20082;-77
2021/11/08 09:22:15;;;;;;;50.33;8.10;;;;;;;8.18;86.85;102065.88;4984973;28;20022;-77
2021/11/08 09:24:42;;;;;;;28.23;6.65;;;;;;;8.11;86.89;102070.66;5007152;28;20453;-76
2021/11/08 09:27:08;;;;;;;31.52;7.38;;;;;;;8.11;87.64;102072.41;4926343;28;20042;-76
2021/11/08 09:29:34;;;;;;;37.65;6.05;;;;;;;8.25;86.79;102068.84;4987621;28;20392;-76
2021/11/08 09:32:00;;;;;;;32.92;5.82;;;;;;;8.27;86.25;102075.56;4943842;28;20098;-76
2021/11/08 09:34:25;;;;;;;39.25;6.90;;;;;;;8.29;86.25;102076.28;4993045;28;20020;-75
2021/11/08 09:36:54;;;;;;;42.42;6.50;;;;;;;8.38;85.29;102067.03;4930655;28;20496;-76
2021/11/08 09:39:27;;;;;;;44.13;7.15;;;;;;;8.53;85.22;102068.56;4927814;28;20030;-76
2021/11/08 09:41:56;;;;;;;37.35;7.78;;;;;;;8.56;84.73;102070.06;4982356;28;20063;-76
2021/11/08 09:44:22;;;;;;;37.10;6.95;;;;;;;8.62;85.11;102068.81;4996391;28;20032;-76
2021/11/08 09:46:53;;;;;;;44.80;8.45;;;;;;;8.82;84.96;102067.34;4928555;28;20043;-75
2021/11/08 09:49:21;;;;;;;33.35;6.93;;;;;;;9.07;82.96;102076.69;4921608;28;20036;-75
2021/11/08 09:51:48;;;;;;;43.38;7.63;;;;;;;8.93;82.57;102068.19;4947701;28;20045;-75
2021/11/08 09:54:16;;;;;;;30.35;6.50;;;;;;;8.93;81.63;102072.56;5007320;28;20114;-75
2021/11/08 09:56:48;;;;;;;41.92;7.30;;;;;;;9.02;82.12;102081.38;4933127;28;20035;-75
2021/11/08 09:59:14;;;;;;;34.03;6.82;;;;;;;9.11;81.93;102068.56;4998359;28;20036;-76
2021/11/08 10:01:45;;;;;;;31.02;7.07;;;;;;;9.05;82.35;102057.88;4968813;28;20480;-77
2021/11/08 10:04:10;;;;;;;37.50;6.40;;;;;;;9.15;82.26;102075.19;4927111;28;20031;-71
2021/11/08 10:06:37;;;;;;;35.38;6.43;;;;;;;9.22;81.69;102074.72;5006504;28;20035;-76
2021/11/08 10:09:09;;;;;;;37.72;6.95;;;;;;;9.19;82.13;102070.56;4927661;28;20484;-78
2021/11/08 10:11:37;;;;;;;37.80;7.70;;;;;;;9.20;81.66;102069.66;4966612;28;20040;-75
2021/11/08 10:14:04;;;;;;;27.15;5.63;;;;;;;9.29;81.38;102076.72;5021227;28;20086;-75
2021/11/08 10:16:32;;;;;;;29.50;6.07;;;;;;;9.33;80.50;102074.72;4928107;28;20043;-77
2021/11/08 10:19:00;;;;;;;33.47;7.20;;;;;;;9.27;80.88;102072.59;4921373;28;20056;-76
2021/11/08 10:21:31;;;;;;;26.95;6.45;;;;;;;9.40;80.59;102072.47;5004472;28;20595;-75
2021/11/08 10:23:59;;;;;;;30.85;6.70;;;;;;;9.37;81.21;102076.13;5012934;28;20044;-75
2021/11/08 10:26:33;;;;;;;25.38;6.22;;;;;;;9.43;81.72;102080.84;4949731;28;20129;-76
2021/11/08 10:29:03;;;;;;;30.58;6.00;;;;;;;9.48;81.58;102073.53;5026775;28;20334;-76
2021/11/08 10:31:32;;;;;;;32.50;5.95;;;;;;;9.61;80.26;102072.63;4925804;28;20039;-77
2021/11/08 10:34:01;;;;;;;32.65;6.18;;;;;;;9.59;80.37;102069.28;5030520;28;20214;-75
2021/11/08 10:36:26;;;;;;;35.45;5.65;;;;;;;9.74;80.32;102068.94;4926391;28;20481;-76
2021/11/08 10:38:55;;;;;;;31.27;6.10;;;;;;;9.70;80.08;102059.78;4963906;28;20033;-76
2021/11/08 10:41:27;;;;;;;24.33;5.63;;;;;;;9.67;80.05;102061.78;5005214;28;20031;-75
2021/11/08 10:44:03;;;;;;;34.28;6.40;;;;;;;9.79;79.42;102068.56;4971171;28;20482;-75
2021/11/08 10:46:32;;;;;;;33.38;6.10;;;;;;;9.79;78.82;102063.38;4988577;28;20420;-75
2021/11/08 10:49:10;;;;;;;30.52;5.53;;;;;;;10.01;78.65;102059.13;4920266;28;20059;-76
2021/11/08 10:51:38;;;;;;;24.55;7.05;;;;;;;9.92;78.59;102071.03;5003230;28;20480;-76
2021/11/08 10:54:13;;;;;;;28.75;6.40;;;;;;;9.73;78.91;102067.28;4991001;28;20032;-77
2021/11/08 10:56:45;;;;;;;29.83;5.25;;;;;;;9.79;79.27;102070.34;5001912;28;20095;-77
2021/11/08 10:59:18;;;;;;;30.42;7.15;;;;;;;9.82;79.55;102075.31;5015856;28;20481;-77
2021/11/08 11:02:05;;;;;;;26.70;7.00;;;;;;;9.88;78.88;102065.25;4930681;28;20028;-75
2021/11/08 11:04:57;;;;;;;31.83;5.90;;;;;;;9.91;79.13;102065.03;5004414;28;20138;-76
2021/11/08 11:07:29;;;;;;;20.25;5.28;;;;;;;9.99;77.81;102066.22;4997099;28;20028;-75
2021/11/08 11:10:05;;;;;;;38.17;6.38;;;;;;;10.00;77.59;102065.25;5018424;28;20325;-75
2021/11/08 11:12:31;;;;;;;32.65;6.15;;;;;;;10.17;77.87;102066.50;5004937;28;20467;-76
2021/11/08 11:15:21;;;;;;;32.10;6.10;;;;;;;10.20;78.33;102061.06;4992037;28;20038;-76
2021/11/08 11:17:55;;;;;;;30.38;5.75;;;;;;;10.28;77.08;102056.09;5010161;28;20122;-76
2021/11/08 11:20:32;;;;;;;29.70;6.60;;;;;;;10.24;76.48;102059.88;5012268;28;20040;-76
2021/11/08 11:23:05;;;;;;;26.05;7.03;;;;;;;10.08;76.61;102063.69;4990851;28;20046;-75
2021/11/08 11:25:34;;;;;;;24.67;5.70;;;;;;;10.17;75.84;102059.56;5006737;28;20564;-75
2021/11/08 11:28:01;;;;;;;24.05;6.03;;;;;;;10.23;76.74;102056.47;5009135;28;20039;-75
2021/11/08 11:30:36;;;;;;;31.33;5.45;;;;;;;10.19;77.49;102062.00;4925973;28;20050;-77
2021/11/08 11:33:15;;;;;;;25.33;5.30;;;;;;;10.21;77.56;102049.75;5008717;28;20033;-77
2021/11/08 11:35:48;;;;;;;29.13;6.22;;;;;;;10.06;77.01;102051.81;5016070;28;20085;-74
2021/11/08 11:38:24;;;;;;;37.95;7.60;;;;;;;10.21;77.11;102060.97;5009918;28;20070;-77
2021/11/08 11:40:58;;;;;;;30.52;6.57;;;;;;;10.29;77.79;102057.75;4934904;28;20035;-75
2021/11/08 11:43:34;;;;;;;22.98;5.10;;;;;;;10.19;77.53;102057.66;4986227;28;20590;-74
2021/11/08 11:46:00;;;;;;;30.00;5.38;;;;;;;10.10;77.85;102054.03;4993786;28;20054;-75
2021/11/08 11:48:29;;;;;;;24.13;5.68;;;;;;;10.25;75.04;102052.00;5009053;28;20028;-75
2021/11/08 11:50:55;;;;;;;33.38;5.85;;;;;;;10.38;75.29;102062.22;5017027;28;20034;-75
2021/11/08 11:53:23;;;;;;;32.90;5.95;;;;;;;10.32;74.72;102053.19;4983586;28;20063;-76
2021/11/08 11:55:48;;;;;;;28.20;5.63;;;;;;;10.41;74.38;102055.97;5023551;28;20028;-76
2021/11/08 11:58:15;;;;;;;34.92;5.20;;;;;;;10.31;75.24;102050.69;4993435;28;20582;-77
2021/11/08 12:00:42;;;;;;;29.88;6.38;;;;;;;10.24;75.92;102057.28;4992125;28;20055;-76
2021/11/08 12:03:08;;;;;;;28.20;5.75;;;;;;;10.29;75.23;102048.19;5021894;28;20074;-77
2021/11/08 12:05:37;;;;;;;29.48;6.60;;;;;;;10.43;75.73;102059.25;4955413;28;20505;-76
2021/11/08 12:08:08;;;;;;;24.17;4.85;;;;;;;10.34;75.54;102060.84;4954214;28;20074;-75
2021/11/08 12:10:42;;;;;;;25.67;4.70;;;;;;;10.25;75.96;102057.16;5006466;28;20448;-76
2021/11/08 12:13:15;;;;;;;28.88;4.88;;;;;;;10.23;76.61;102053.06;5004931;28;20036;-75
2021/11/08 12:15:41;;;;;;;20.30;4.38;;;;;;;10.38;75.48;102059.63;4992242;28;20035;-74
2021/11/08 12:18:11;;;;;;;30.85;5.05;;;;;;;10.47;75.15;102061.50;5006696;28;20534;-75
2021/11/08 12:20:48;;;;;;;29.20;5.55;;;;;;;10.43;76.37;102051.47;5026005;28;20040;-76
2021/11/08 12:23:17;;;;;;;26.20;4.85;;;;;;;10.50;76.07;102052.63;5026125;28;20025;-76
2021/11/08 12:25:44;;;;;;;31.10;4.88;;;;;;;10.63;74.96;102047.25;5008927;28;20060;-75
2021/11/08 12:28:16;;;;;;;30.17;6.32;;;;;;;10.45;75.54;102047.81;5009043;28;20498;-76
2021/11/08 12:30:48;;;;;;;29.42;5.03;;;;;;;10.49;75.18;102046.63;4996778;28;20247;-75
2021/11/08 12:33:21;;;;;;;23.35;5.05;;;;;;;10.41;75.54;102045.59;5004931;28;20347;-76
2021/11/08 12:35:47;;;;;;;19.83;4.43;;;;;;;10.43;75.65;102049.69;5012415;28;20044;-76
2021/11/08 12:38:29;;;;;;;26.30;5.50;;;;;;;10.43;75.72;102057.47;5009287;28;20474;-76
2021/11/08 12:41:20;;;;;;;28.52;6.22;;;;;;;10.52;75.38;102046.34;5008254;28;20233;-76
2021/11/08 12:43:56;;;;;;;21.70;4.00;;;;;;;10.35;75.60;102046.91;5007626;28;21220;-76
2021/11/08 12:46:25;;;;;;;29.52;5.65;;;;;;;10.49;75.66;102054.41;4971991;28;20566;-77
2021/11/08 12:49:20;;;;;;;29.45;5.10;;;;;;;10.41;75.85;102046.41;4935263;28;20419;-75
2021/11/08 12:51:59;;;;;;;23.30;4.20;;;;;;;10.46;74.41;102043.47;5005672;28;20428;-75
2021/11/08 12:54:29;;;;;;;34.42;8.10;;;;;;;10.52;74.23;102041.16;5000023;28;20047;-77
2021/11/08 12:57:12;;;;;;;23.33;4.47;;;;;;;10.41;74.92;102051.59;5005087;28;20040;-75
2021/11/08 12:59:48;;;;;;;29.70;5.03;;;;;;;10.42;73.88;102032.50;4925511;28;20524;-76
2021/11/08 13:02:25;;;;;;;28.50;4.18;;;;;;;10.41;74.14;102033.44;5035988;28;20041;-76
2021/11/08 13:04:53;;;;;;;30.77;5.05;;;;;;;10.46;74.19;102030.50;5011752;28;20047;-76
2021/11/08 13:07:20;;;;;;;22.90;4.07;;;;;;;10.36;73.82;102024.38;5011819;28;20039;-76
2021/11/08 13:09:54;;;;;;;27.48;5.38;;;;;;;10.40;73.91;102031.00;5008270;28;20044;-76
2021/11/08 13:12:31;;;;;;;24.17;4.32;;;;;;;10.44;73.60;102025.41;5019558;28;20040;-75
2021/11/08 13:15:23;;;;;;;23.50;4.63;;;;;;;10.34;74.31;102037.50;5028296;28;20050;-76
2021/11/08 13:17:53;;;;;;;27.13;3.92;;;;;;;10.46;75.04;102031.31;4926302;28;20116;-75
2021/11/08 13:20:24;;;;;;;19.20;5.50;;;;;;;10.25;75.50;102022.66;4932438;28;20027;-75
2021/11/08 13:22:54;;;;;;;29.73;4.57;;;;;;;10.39;74.51;102026.75;4994458;28;20031;-74